createdAt,value
2023-04-18T00:01:10.803Z,91.66
2023-04-18T00:03:37.916Z,91.32
2023-04-18T00:06:04.736Z,91.13
2023-04-18T00:08:31.223Z,91.60
2023-04-18T00:10:57.742Z,91.28
2023-04-18T00:13:25.536Z,90.96
2023-04-18T00:15:52.027Z,91.46
2023-04-18T00:18:18.492Z,91.42
2023-04-18T00:20:45.253Z,91.33
2023-04-18T00:23:13.382Z,91.55
2023-04-18T00:25:40.817Z,91.79
2023-04-18T00:28:07.261Z,91.81
2023-04-18T00:30:33.790Z,91.86
2023-04-18T00:33:00.455Z,92.03
2023-04-18T00:35:28.410Z,91.48
2023-04-18T00:37:54.933Z,91.95
2023-04-18T00:40:21.427Z,91.92
2023-04-18T00:42:47.987Z,91.92
2023-04-18T00:45:14.548Z,92.49
2023-04-18T00:47:41.161Z,92.01
2023-04-18T00:50:09.557Z,92.70
2023-04-18T00:52:36.799Z,93.33
2023-04-18T00:55:06.186Z,93.15
2023-04-18T00:57:33.190Z,93.16
2023-04-18T01:00:01.283Z,93.79
2023-04-18T01:02:28.088Z,93.91
2023-04-18T01:04:54.689Z,94.17
2023-04-18T01:07:21.219Z,93.85
2023-04-18T01:09:48.119Z,93.03
2023-04-18T01:12:14.655Z,93.17
2023-04-18T01:14:44.116Z,91.68
2023-04-18T01:17:10.615Z,92.10
2023-04-18T01:19:37.529Z,91.98
2023-04-18T01:22:03.994Z,92.63
2023-04-18T01:24:30.569Z,92.19
2023-04-18T01:26:57.294Z,92.01
2023-04-18T01:29:23.763Z,91.81
2023-04-18T01:31:50.571Z,92.89
2023-04-18T01:34:17.320Z,92.27
2023-04-18T01:36:43.962Z,92.23
2023-04-18T01:39:10.621Z,91.97
2023-04-18T01:41:37.165Z,92.29
2023-04-18T01:44:04.105Z,92.62
2023-04-18T01:46:31.013Z,92.42
2023-04-18T01:48:57.867Z,92.75
2023-04-18T01:51:24.404Z,92.46
2023-04-18T01:53:50.896Z,92.84
2023-04-18T01:56:17.608Z,92.60
2023-04-18T01:58:44.109Z,92.81
2023-04-18T02:01:10.811Z,92.69
2023-04-18T02:03:37.581Z,92.10
2023-04-18T02:06:05.539Z,92.57
2023-04-18T02:08:32.267Z,92.33
2023-04-18T02:10:59.097Z,92.18
2023-04-18T02:13:25.565Z,92.49
2023-04-18T02:15:52.066Z,91.65
2023-04-18T02:18:18.618Z,92.53
2023-04-18T02:20:45.253Z,91.74
2023-04-18T02:23:11.818Z,92.54
2023-04-18T02:25:38.375Z,92.49
2023-04-18T02:28:04.981Z,93.10
2023-04-18T02:30:31.473Z,92.95
2023-04-18T02:32:57.997Z,92.47
2023-04-18T02:35:25.621Z,92.79
2023-04-18T02:37:52.150Z,92.27
2023-04-18T02:40:19.098Z,92.90
2023-04-18T02:42:46.096Z,92.74
2023-04-18T02:45:12.575Z,92.53
2023-04-18T02:47:47.480Z,92.22
2023-04-18T02:50:21.514Z,92.59
2023-04-18T02:52:48.040Z,92.71
2023-04-18T02:55:14.637Z,92.10
2023-04-18T02:57:41.074Z,91.58
2023-04-18T03:00:08.126Z,91.41
2023-04-18T03:02:34.792Z,91.30
2023-04-18T03:05:01.407Z,92.19
2023-04-18T03:07:27.964Z,91.56
2023-04-18T03:09:54.490Z,91.81
2023-04-18T03:12:21.003Z,92.40
2023-04-18T03:14:47.533Z,91.41
2023-04-18T03:17:14.238Z,91.68
2023-04-18T03:19:40.772Z,92.53
2023-04-18T03:22:07.280Z,91.98
2023-04-18T03:24:33.781Z,92.74
2023-04-18T03:27:00.386Z,92.87
2023-04-18T03:29:26.929Z,92.66
2023-04-18T03:31:53.450Z,92.60
2023-04-18T03:34:19.968Z,92.79
2023-04-18T03:36:47.940Z,93.03
2023-04-18T03:39:14.958Z,92.31
2023-04-18T03:41:41.500Z,91.96
2023-04-18T03:44:07.986Z,92.06
2023-04-18T03:46:35.095Z,92.81
2023-04-18T03:49:01.684Z,92.25
2023-04-18T03:51:33.560Z,91.94
2023-04-18T03:54:00.113Z,91.86
2023-04-18T03:56:26.678Z,91.40
2023-04-18T03:58:53.219Z,91.78
2023-04-18T04:01:19.693Z,91.29
2023-04-18T04:03:46.317Z,91.27
2023-04-18T04:06:13.054Z,92.10
2023-04-18T04:08:39.532Z,91.03
2023-04-18T04:11:06.061Z,92.20
2023-04-18T04:13:32.580Z,91.71
2023-04-18T04:15:59.146Z,91.83
2023-04-18T04:18:25.626Z,91.25
2023-04-18T04:20:52.103Z,90.95
2023-04-18T04:23:18.566Z,91.89
2023-04-18T04:25:45.076Z,91.90
2023-04-18T04:28:11.634Z,91.64
2023-04-18T04:30:38.166Z,90.23
2023-04-18T04:33:04.748Z,91.24
2023-04-18T04:35:31.351Z,90.99
2023-04-18T04:37:57.826Z,90.29
2023-04-18T04:40:24.313Z,90.45
2023-04-18T04:42:50.790Z,89.80
2023-04-18T04:45:17.313Z,91.17
2023-04-18T04:47:43.857Z,90.08
2023-04-18T04:50:10.847Z,90.45
2023-04-18T04:52:37.298Z,90.39
2023-04-18T04:55:04.031Z,91.40
2023-04-18T04:57:30.532Z,90.98
2023-04-18T04:59:57.034Z,91.13
2023-04-18T05:02:23.718Z,90.36
2023-04-18T05:04:50.401Z,90.50
2023-04-18T05:07:16.893Z,91.71
2023-04-18T05:09:43.429Z,90.73
2023-04-18T05:12:09.916Z,91.54
2023-04-18T05:14:36.447Z,91.52
2023-04-18T05:17:02.987Z,90.87
2023-04-18T05:19:29.565Z,91.51
2023-04-18T05:21:56.069Z,91.22
2023-04-18T05:24:22.590Z,91.78
2023-04-18T05:26:49.160Z,91.72
2023-04-18T05:29:15.649Z,92.29
2023-04-18T05:31:42.101Z,93.07
2023-04-18T05:34:08.598Z,92.76
2023-04-18T05:36:35.250Z,91.90
2023-04-18T05:39:01.737Z,92.68
2023-04-18T05:41:28.241Z,92.18
2023-04-18T05:44:04.946Z,91.75
2023-04-18T05:46:32.834Z,92.35
2023-04-18T05:48:59.433Z,92.03
2023-04-18T05:51:25.927Z,91.73
2023-04-18T05:53:52.484Z,92.01
2023-04-18T05:56:18.958Z,92.20
2023-04-18T05:58:45.440Z,92.60
2023-04-18T06:01:12.009Z,93.38
2023-04-18T06:03:38.705Z,92.47
2023-04-18T06:06:05.670Z,92.78
2023-04-18T06:08:32.192Z,93.03
2023-04-18T06:10:58.749Z,92.61
2023-04-18T06:13:25.234Z,92.51
2023-04-18T06:15:51.787Z,93.11
2023-04-18T06:18:18.278Z,93.11
2023-04-18T06:20:44.735Z,93.07
2023-04-18T06:23:11.257Z,92.13
2023-04-18T06:25:37.787Z,91.95
2023-04-18T06:28:04.469Z,91.61
2023-04-18T06:30:30.997Z,91.90
2023-04-18T06:32:57.606Z,92.09
2023-04-18T06:35:26.369Z,92.25
2023-04-18T06:37:53.181Z,91.95
2023-04-18T06:40:19.762Z,91.30
2023-04-18T06:42:46.244Z,91.79
2023-04-18T06:45:12.830Z,91.18
2023-04-18T06:47:40.596Z,90.94
2023-04-18T06:50:07.925Z,91.01
2023-04-18T06:52:36.083Z,91.45
2023-04-18T06:55:02.631Z,90.58
2023-04-18T06:57:29.169Z,90.99
2023-04-18T06:59:55.659Z,89.14
2023-04-18T07:02:22.297Z,90.15
2023-04-18T07:04:48.909Z,90.77
2023-04-18T07:07:15.505Z,91.02
2023-04-18T07:09:42.041Z,90.74
2023-04-18T07:12:08.534Z,90.09
2023-04-18T07:14:35.078Z,90.08
2023-04-18T07:17:01.841Z,89.71
2023-04-18T07:19:28.348Z,88.93
2023-04-18T07:21:54.930Z,88.69
2023-04-18T07:24:21.481Z,88.86
2023-04-18T07:26:47.975Z,88.99
2023-04-18T07:29:14.488Z,89.28
2023-04-18T07:31:41.006Z,89.51
2023-04-18T07:34:07.482Z,88.81
2023-04-18T07:36:34.000Z,88.35
2023-04-18T07:39:01.544Z,88.80
2023-04-18T07:41:28.158Z,87.83
2023-04-18T07:43:54.661Z,86.98
2023-04-18T07:46:21.235Z,86.96
2023-04-18T07:48:47.779Z,87.17
2023-04-18T07:51:14.402Z,87.40
2023-04-18T07:53:40.931Z,87.26
2023-04-18T07:56:07.524Z,87.08
2023-04-18T07:58:34.693Z,87.40
2023-04-18T08:01:01.241Z,86.77
2023-04-18T08:03:28.035Z,86.76
2023-04-18T08:05:54.860Z,86.48
2023-04-18T08:08:21.407Z,86.73
2023-04-18T08:10:47.877Z,86.36
2023-04-18T08:13:14.388Z,86.69
2023-04-18T08:15:41.380Z,86.70
2023-04-18T08:18:07.875Z,87.10
2023-04-18T08:20:34.418Z,87.35
2023-04-18T08:25:30.400Z,85.37
2023-04-18T08:27:57.199Z,86.95
2023-04-18T08:30:23.822Z,86.05
2023-04-18T08:32:50.387Z,86.83
2023-04-18T08:35:17.042Z,85.91
2023-04-18T08:37:43.779Z,85.99
2023-04-18T08:40:10.498Z,85.49
2023-04-18T08:42:37.392Z,85.27
2023-04-18T08:45:05.443Z,84.85
2023-04-18T08:47:31.968Z,86.25
2023-04-18T08:49:58.582Z,87.58
2023-04-18T08:52:27.269Z,83.74
2023-04-18T08:54:53.918Z,84.84
2023-04-18T08:57:20.523Z,85.01
2023-04-18T08:59:49.644Z,85.17
2023-04-18T09:02:17.497Z,86.21
2023-04-18T09:04:45.710Z,86.51
2023-04-18T09:07:13.710Z,86.88
2023-04-18T09:09:51.355Z,86.30
2023-04-18T09:15:08.800Z,85.05
2023-04-18T09:17:38.013Z,85.28
2023-04-18T09:20:06.371Z,84.00
2023-04-18T09:22:50.515Z,84.99
2023-04-18T09:25:28.093Z,84.06
2023-04-18T09:27:55.871Z,83.31
2023-04-18T09:30:31.363Z,82.66
2023-04-18T09:32:59.389Z,85.10
2023-04-18T09:35:26.188Z,85.56
2023-04-18T09:37:53.168Z,85.05
2023-04-18T09:40:20.305Z,85.08
2023-04-18T09:42:47.864Z,84.69
2023-04-18T09:45:14.354Z,85.18
2023-04-18T09:47:40.922Z,84.64
2023-04-18T09:50:09.452Z,85.60
2023-04-18T09:52:39.301Z,84.33
2023-04-18T09:55:08.580Z,85.08
2023-04-18T09:57:37.220Z,86.19
2023-04-18T10:00:10.592Z,84.94
2023-04-18T10:03:06.811Z,84.22
2023-04-18T10:05:43.107Z,84.89
2023-04-18T10:08:10.610Z,81.25
2023-04-18T10:10:38.655Z,84.05
2023-04-18T10:13:06.988Z,84.68
2023-04-18T10:15:33.754Z,84.24
2023-04-18T10:18:05.782Z,84.35
2023-04-18T10:20:34.548Z,83.24
2023-04-18T10:23:35.002Z,84.17
2023-04-18T10:26:03.523Z,85.48
2023-04-18T10:28:55.858Z,83.73
2023-04-18T10:31:27.640Z,85.58
2023-04-18T10:34:04.603Z,83.85
2023-04-18T10:36:33.176Z,83.88
2023-04-18T10:39:00.741Z,82.89
2023-04-18T10:41:32.116Z,84.36
2023-04-18T10:44:08.666Z,85.46
2023-04-18T10:46:40.536Z,81.66
2023-04-18T10:49:26.228Z,83.98
2023-04-18T10:51:56.688Z,82.95
2023-04-18T10:54:28.974Z,82.52
2023-04-18T10:56:57.622Z,84.98
2023-04-18T10:59:25.491Z,82.67
2023-04-18T11:01:57.195Z,84.23
2023-04-18T11:04:24.970Z,85.13
2023-04-18T11:06:53.655Z,83.74
2023-04-18T11:09:21.645Z,84.90
2023-04-18T11:12:03.542Z,84.66
2023-04-18T11:14:47.747Z,84.06
2023-04-18T11:17:25.728Z,83.75
2023-04-18T11:20:14.568Z,83.57
2023-04-18T11:22:49.485Z,83.90
2023-04-18T11:25:19.248Z,84.78
2023-04-18T11:27:47.731Z,83.69
2023-04-18T11:30:15.246Z,83.75
2023-04-18T11:32:41.992Z,82.96
2023-04-18T11:35:10.101Z,83.92
2023-04-18T11:37:37.793Z,83.90
2023-04-18T11:40:05.577Z,84.75
2023-04-18T11:42:33.566Z,83.93
2023-04-18T11:45:00.394Z,83.99
2023-04-18T11:47:33.107Z,84.23
2023-04-18T11:50:04.705Z,84.25
2023-04-18T11:52:32.279Z,81.49
2023-04-18T11:55:24.202Z,80.07
2023-04-18T11:58:01.116Z,82.86
2023-04-18T12:00:30.745Z,82.08
2023-04-18T12:02:57.872Z,81.96
2023-04-18T12:05:28.312Z,82.26
2023-04-18T12:07:55.337Z,79.86
2023-04-18T12:10:21.816Z,82.69
2023-04-18T12:12:58.952Z,81.62
2023-04-18T12:15:27.362Z,82.24
2023-04-18T12:18:06.353Z,80.97
2023-04-18T12:20:45.227Z,83.36
2023-04-18T12:23:29.812Z,83.02
2023-04-18T12:26:16.154Z,81.85
2023-04-18T12:28:45.070Z,83.43
2023-04-18T12:31:11.654Z,84.41
2023-04-18T12:33:38.216Z,83.88
2023-04-18T12:36:05.068Z,83.42
2023-04-18T12:38:31.602Z,84.10
2023-04-18T12:40:58.140Z,83.42
2023-04-18T12:43:24.669Z,82.99
2023-04-18T12:45:51.195Z,83.72
2023-04-18T12:48:17.737Z,83.84
2023-04-18T12:50:44.427Z,82.26
2023-04-18T12:53:10.943Z,84.04
2023-04-18T12:55:37.470Z,83.41
2023-04-18T12:58:04.042Z,84.17
2023-04-18T13:00:31.748Z,84.08
2023-04-18T13:02:58.673Z,82.56
2023-04-18T13:05:29.787Z,84.97
2023-04-18T13:08:15.495Z,84.38
2023-04-18T13:10:43.289Z,84.28
2023-04-18T13:13:09.811Z,81.34
2023-04-18T13:15:36.312Z,83.32
2023-04-18T13:18:04.050Z,83.88
2023-04-18T13:20:30.633Z,83.85
2023-04-18T13:22:57.124Z,83.45
2023-04-18T13:25:23.646Z,82.41
2023-04-18T13:27:50.150Z,84.12
2023-04-18T13:30:16.624Z,83.54
2023-04-18T13:32:43.255Z,84.06
2023-04-18T13:35:11.769Z,83.40
2023-04-18T13:37:38.955Z,83.81
2023-04-18T13:40:06.608Z,84.15
2023-04-18T13:42:39.016Z,83.59
2023-04-18T13:45:06.181Z,84.46
2023-04-18T13:47:32.746Z,83.88
2023-04-18T13:49:59.308Z,84.09
2023-04-18T13:52:26.301Z,81.87
2023-04-18T13:54:53.108Z,83.86
2023-04-18T13:57:19.833Z,84.35
2023-04-18T13:59:46.422Z,84.47
2023-04-18T14:02:13.026Z,83.20
2023-04-18T14:04:39.759Z,83.22
2023-04-18T14:07:06.469Z,82.56
2023-04-18T14:09:33.270Z,83.50
2023-04-18T14:11:59.853Z,82.51
2023-04-18T14:14:26.390Z,83.55
2023-04-18T14:16:52.940Z,83.31
2023-04-18T14:19:19.509Z,83.56
2023-04-18T14:21:46.735Z,82.56
2023-04-18T14:24:13.095Z,82.77
2023-04-18T14:26:39.629Z,83.30
2023-04-18T14:29:06.174Z,83.26
2023-04-18T14:31:32.827Z,83.16
2023-04-18T14:33:59.344Z,83.84
2023-04-18T14:36:25.869Z,81.98
2023-04-18T14:38:52.436Z,84.28
2023-04-18T14:41:18.957Z,84.82
2023-04-18T14:43:45.430Z,84.54
2023-04-18T14:46:15.375Z,84.56
2023-04-18T14:48:42.505Z,85.27
2023-04-18T14:51:09.038Z,85.78
2023-04-18T14:53:35.598Z,85.62
2023-04-18T14:56:02.102Z,85.11
2023-04-18T14:58:28.598Z,85.01
2023-04-18T15:00:55.143Z,84.53
2023-04-18T15:03:21.926Z,84.94
2023-04-18T15:05:48.556Z,85.59
2023-04-18T15:08:15.327Z,84.71
2023-04-18T15:10:42.653Z,84.67
2023-04-18T15:13:09.749Z,84.75
2023-04-18T15:15:36.424Z,83.66
2023-04-18T15:18:03.200Z,84.53
2023-04-18T15:20:29.816Z,85.00
2023-04-18T15:22:57.276Z,84.95
2023-04-18T15:25:23.782Z,84.95
2023-04-18T15:27:50.301Z,84.76
2023-04-18T15:30:16.807Z,85.07
2023-04-18T15:32:43.388Z,85.13
2023-04-18T15:35:10.542Z,85.16
2023-04-18T15:37:37.628Z,85.05
2023-04-18T15:40:05.002Z,85.15
2023-04-18T15:42:31.533Z,85.56
2023-04-18T15:44:58.097Z,85.59
2023-04-18T15:47:24.629Z,86.40
2023-04-18T15:49:51.175Z,85.65
2023-04-18T15:52:17.780Z,85.92
2023-04-18T15:54:44.309Z,85.73
2023-04-18T15:57:11.306Z,85.18
2023-04-18T15:59:37.863Z,84.39
2023-04-18T16:02:04.479Z,85.25
2023-04-18T16:04:31.121Z,84.84
2023-04-18T16:06:57.696Z,85.08
2023-04-18T16:09:24.289Z,85.76
2023-04-18T16:11:50.795Z,86.19
2023-04-18T16:14:17.370Z,84.56
2023-04-18T16:16:43.934Z,85.35
2023-04-18T16:19:10.468Z,85.05
2023-04-18T16:21:37.010Z,84.87
2023-04-18T16:24:03.618Z,85.09
2023-04-18T16:26:30.146Z,85.01
2023-04-18T16:28:56.788Z,85.20
2023-04-18T16:31:23.566Z,85.18
2023-04-18T16:33:50.105Z,85.41
2023-04-18T16:36:16.624Z,85.55
2023-04-18T16:38:43.168Z,85.59
2023-04-18T16:41:09.683Z,85.62
2023-04-18T16:43:36.187Z,85.40
2023-04-18T16:46:03.181Z,85.61
2023-04-18T16:48:29.730Z,85.34
2023-04-18T16:50:56.410Z,85.36
2023-04-18T16:53:23.781Z,85.62
2023-04-18T16:55:50.912Z,85.41
2023-04-18T16:58:17.401Z,85.33
2023-04-18T17:00:43.900Z,85.41
2023-04-18T17:03:10.507Z,85.56
2023-04-18T17:05:37.432Z,85.74
2023-04-18T17:08:04.032Z,85.90
2023-04-18T17:10:30.999Z,86.00
2023-04-18T17:12:58.437Z,86.14
2023-04-18T17:15:26.220Z,86.00
2023-04-18T17:17:54.309Z,86.00
2023-04-18T17:20:20.977Z,86.03
2023-04-18T17:22:47.470Z,85.59
2023-04-18T17:25:14.060Z,85.85
2023-04-18T17:27:40.583Z,85.90
2023-04-18T17:30:07.899Z,86.08
2023-04-18T17:32:34.239Z,86.06
2023-04-18T17:35:00.755Z,85.88
2023-04-18T17:37:27.215Z,86.02
2023-04-18T17:39:53.752Z,85.65
2023-04-18T17:42:20.241Z,86.34
2023-04-18T17:44:46.730Z,86.28
2023-04-18T17:47:13.206Z,86.64
2023-04-18T17:49:39.718Z,86.68
2023-04-18T17:52:06.534Z,86.97
2023-04-18T17:54:33.076Z,86.37
2023-04-18T17:56:59.670Z,87.40
2023-04-18T17:59:26.127Z,86.45
2023-04-18T18:01:52.750Z,86.76
2023-04-18T18:04:19.654Z,87.21
2023-04-18T18:06:56.985Z,86.85
2023-04-18T18:09:23.563Z,87.28
2023-04-18T18:11:50.059Z,87.45
2023-04-18T18:14:16.530Z,87.31
2023-04-18T18:16:43.357Z,87.17
2023-04-18T18:19:09.849Z,86.82
2023-04-18T18:21:36.381Z,87.06
2023-04-18T18:24:03.036Z,87.24
2023-04-18T18:26:29.520Z,86.95
2023-04-18T18:28:56.081Z,86.95
2023-04-18T18:31:22.682Z,87.02
2023-04-18T18:33:49.197Z,87.13
2023-04-18T18:36:15.730Z,87.17
2023-04-18T18:38:42.276Z,87.32
2023-04-18T18:41:08.960Z,87.58
2023-04-18T18:43:35.465Z,87.44
2023-04-18T18:46:02.040Z,87.31
2023-04-18T18:48:28.641Z,87.46
2023-04-18T18:50:55.180Z,87.30
2023-04-18T18:53:21.785Z,87.35
2023-04-18T18:55:48.305Z,87.60
2023-04-18T18:58:14.874Z,87.55
2023-04-18T19:00:41.402Z,87.81
2023-04-18T19:03:07.966Z,87.98
2023-04-18T19:05:34.529Z,87.85
2023-04-18T19:08:01.046Z,87.63
2023-04-18T19:10:27.572Z,87.69
2023-04-18T19:12:54.072Z,87.99
2023-04-18T19:15:20.592Z,87.74
2023-04-18T19:17:47.133Z,87.30
2023-04-18T19:20:13.698Z,87.38
2023-04-18T19:22:41.435Z,87.75
2023-04-18T19:25:08.743Z,87.92
2023-04-18T19:27:35.311Z,87.83
2023-04-18T19:30:02.015Z,87.76
2023-04-18T19:32:30.238Z,87.53
2023-04-18T19:34:56.777Z,88.21
2023-04-18T19:37:23.287Z,88.05
2023-04-18T19:39:49.784Z,87.97
2023-04-18T19:42:16.440Z,88.39
2023-04-18T19:44:42.955Z,87.89
2023-04-18T19:47:09.436Z,88.45
2023-04-18T19:49:35.911Z,88.23
2023-04-18T19:52:02.398Z,88.00
2023-04-18T19:54:31.421Z,87.92
2023-04-18T19:56:57.881Z,87.98
2023-04-18T19:59:24.461Z,88.09
2023-04-18T20:01:50.922Z,88.15
2023-04-18T20:04:17.690Z,88.51
2023-04-18T20:06:44.383Z,88.13
2023-04-18T20:09:10.860Z,87.69
2023-04-18T20:11:37.380Z,87.75
2023-04-18T20:14:03.882Z,87.71
2023-04-18T20:16:31.701Z,87.68
2023-04-18T20:18:58.273Z,88.08
2023-04-18T20:21:24.805Z,88.33
2023-04-18T20:23:51.311Z,88.21
2023-04-18T20:26:17.910Z,87.97
2023-04-18T20:28:44.433Z,88.28
2023-04-18T20:31:11.354Z,87.94
2023-04-18T20:33:37.905Z,88.00
2023-04-18T20:36:05.274Z,88.32
2023-04-18T20:38:31.741Z,88.26
2023-04-18T20:40:58.305Z,88.31
2023-04-18T20:43:24.795Z,88.45
2023-04-18T20:45:51.459Z,88.17
2023-04-18T20:48:18.295Z,87.69
2023-04-18T20:50:44.860Z,88.16
2023-04-18T20:53:11.363Z,88.17
2023-04-18T20:55:37.833Z,88.28
2023-04-18T20:58:04.350Z,88.41
2023-04-18T21:00:30.857Z,88.73
2023-04-18T21:02:57.384Z,88.39
2023-04-18T21:05:23.954Z,88.26
2023-04-18T21:07:50.454Z,88.45
2023-04-18T21:10:16.973Z,88.72
2023-04-18T21:12:43.470Z,88.31
2023-04-18T21:15:10.420Z,88.34
2023-04-18T21:17:36.948Z,88.68
2023-04-18T21:20:03.615Z,89.04
2023-04-18T21:22:30.114Z,88.68
2023-04-18T21:24:56.574Z,88.87
2023-04-18T21:27:23.113Z,89.06
2023-04-18T21:29:49.634Z,89.05
2023-04-18T21:32:16.194Z,88.98
2023-04-18T21:34:42.680Z,88.84
2023-04-18T21:37:09.147Z,89.12
2023-04-18T21:39:35.677Z,89.16
2023-04-18T21:42:02.185Z,88.61
2023-04-18T21:44:28.660Z,88.63
2023-04-18T21:46:56.648Z,88.45
2023-04-18T21:49:23.149Z,88.58
2023-04-18T21:51:49.664Z,88.75
2023-04-18T21:54:16.727Z,88.56
2023-04-18T21:56:43.336Z,88.94
2023-04-18T21:59:10.010Z,88.80
2023-04-18T22:01:36.579Z,89.18
2023-04-18T22:04:03.228Z,88.51
2023-04-18T22:06:30.745Z,88.46
2023-04-18T22:08:57.258Z,89.10
2023-04-18T22:11:24.366Z,88.74
2023-04-18T22:13:50.950Z,88.88
2023-04-18T22:16:17.452Z,89.19
2023-04-18T22:18:43.964Z,88.58
2023-04-18T22:21:10.431Z,88.79
2023-04-18T22:23:36.998Z,89.01
2023-04-18T22:26:03.562Z,89.09
2023-04-18T22:28:30.091Z,88.91
2023-04-18T22:30:56.648Z,89.08
2023-04-18T22:33:23.186Z,89.20
2023-04-18T22:35:49.706Z,88.74
2023-04-18T22:38:16.256Z,89.33
2023-04-18T22:40:42.773Z,89.30
2023-04-18T22:43:09.315Z,89.26
2023-04-18T22:45:35.837Z,89.48
2023-04-18T22:48:02.347Z,88.66
2023-04-18T22:50:28.885Z,88.73
2023-04-18T22:52:55.449Z,88.67
2023-04-18T22:55:22.058Z,89.17
2023-04-18T22:57:48.557Z,89.15
2023-04-18T23:00:15.315Z,88.67
2023-04-18T23:02:43.328Z,89.21
2023-04-18T23:05:09.964Z,89.56
2023-04-18T23:07:36.457Z,88.78
2023-04-18T23:10:05.610Z,89.14
2023-04-18T23:12:32.148Z,89.48
2023-04-18T23:14:58.668Z,89.72
2023-04-18T23:17:25.222Z,89.61
2023-04-18T23:19:51.762Z,89.65
2023-04-18T23:22:18.251Z,89.87
2023-04-18T23:24:44.765Z,89.97
2023-04-18T23:27:11.220Z,89.79
2023-04-18T23:29:39.006Z,89.91
2023-04-18T23:32:05.935Z,89.96
2023-04-18T23:34:32.507Z,89.57
2023-04-18T23:36:59.604Z,89.78
2023-04-18T23:39:26.930Z,89.20
2023-04-18T23:41:53.319Z,89.27
2023-04-18T23:44:19.887Z,89.70
2023-04-18T23:46:47.308Z,89.31
2023-04-18T23:49:14.171Z,89.31
2023-04-18T23:54:27.424Z,88.86
2023-04-18T23:56:53.908Z,88.95
2023-04-18T23:59:20.357Z,88.99
